createdAt,value
2023-10-06T00:00:08.513Z,71
2023-10-06T00:02:39.060Z,71
2023-10-06T00:05:10.081Z,70
2023-10-06T00:07:41.065Z,71
2023-10-06T00:10:12.031Z,71
2023-10-06T00:12:42.984Z,71
2023-10-06T00:15:13.582Z,71
2023-10-06T00:17:44.032Z,71
2023-10-06T00:20:14.573Z,71
2023-10-06T00:22:45.721Z,71
2023-10-06T00:25:16.703Z,71
2023-10-06T00:27:47.477Z,70
2023-10-06T00:30:18.228Z,70
2023-10-06T00:32:48.935Z,70
2023-10-06T00:35:19.402Z,70
2023-10-06T00:37:49.850Z,70
2023-10-06T00:40:21.055Z,70
2023-10-06T00:42:51.810Z,70
2023-10-06T00:45:23.256Z,70
2023-10-06T00:47:53.682Z,70
2023-10-06T00:50:23.128Z,70
2023-10-06T00:52:54.389Z,70
2023-10-06T00:55:24.865Z,70
2023-10-06T00:57:55.685Z,70
2023-10-06T01:00:26.404Z,70
2023-10-06T01:02:57.104Z,70
2023-10-06T01:05:27.861Z,70
2023-10-06T01:07:58.802Z,70
2023-10-06T01:10:29.794Z,70
2023-10-06T01:13:01.027Z,70
2023-10-06T01:15:32.220Z,70
2023-10-06T01:18:03.151Z,70
2023-10-06T01:20:34.210Z,69
2023-10-06T01:23:05.201Z,70
2023-10-06T01:25:35.817Z,70
2023-10-06T01:28:06.148Z,70
2023-10-06T01:30:37.034Z,70
2023-10-06T01:33:07.965Z,70
2023-10-06T01:35:38.753Z,70
2023-10-06T01:38:09.242Z,70
2023-10-06T01:40:39.811Z,70
2023-10-06T01:43:10.987Z,70
2023-10-06T01:45:41.500Z,70
2023-10-06T01:48:12.420Z,70
2023-10-06T01:50:42.923Z,70
2023-10-06T01:53:13.296Z,70
2023-10-06T01:55:44.067Z,70
2023-10-06T01:58:14.232Z,70
2023-10-06T02:00:45.042Z,70
2023-10-06T02:03:15.583Z,70
2023-10-06T02:05:46.020Z,70
2023-10-06T02:08:16.607Z,70
2023-10-06T02:10:47.297Z,70
2023-10-06T02:13:18.325Z,70
2023-10-06T02:15:49.379Z,70
2023-10-06T02:18:20.218Z,70
2023-10-06T02:20:51.458Z,70
2023-10-06T02:23:22.355Z,71
2023-10-06T02:25:53.771Z,71
2023-10-06T02:28:27.481Z,71
2023-10-06T02:30:59.508Z,70
2023-10-06T02:33:32.129Z,70
2023-10-06T02:36:00.847Z,70
2023-10-06T02:38:31.848Z,70
2023-10-06T02:41:02.618Z,70
2023-10-06T02:43:33.683Z,70
2023-10-06T02:46:08.735Z,71
2023-10-06T02:48:39.964Z,71
2023-10-06T02:51:11.259Z,71
2023-10-06T02:53:42.232Z,70
2023-10-06T02:56:13.334Z,70
2023-10-06T02:58:44.268Z,70
2023-10-06T03:01:15.015Z,70
2023-10-06T03:03:44.323Z,70
2023-10-06T03:06:15.069Z,70
2023-10-06T03:08:45.790Z,70
2023-10-06T03:11:18.129Z,70
2023-10-06T03:13:49.926Z,70
2023-10-06T03:16:21.067Z,70
2023-10-06T03:18:51.388Z,70
2023-10-06T03:21:23.008Z,70
2023-10-06T03:23:53.709Z,70
2023-10-06T03:26:24.857Z,70
2023-10-06T03:28:55.576Z,70
2023-10-06T03:31:24.578Z,70
2023-10-06T03:33:55.663Z,70
2023-10-06T03:36:26.116Z,70
2023-10-06T03:38:56.969Z,70
2023-10-06T03:41:27.464Z,70
2023-10-06T03:43:57.868Z,70
2023-10-06T03:46:29.080Z,70
2023-10-06T03:49:00.217Z,70
2023-10-06T03:51:30.953Z,70
2023-10-06T03:54:01.762Z,70
2023-10-06T03:56:33.329Z,70
2023-10-06T03:59:04.389Z,70
2023-10-06T04:01:35.050Z,70
2023-10-06T04:04:05.708Z,70
2023-10-06T04:06:37.760Z,70
2023-10-06T04:09:08.741Z,70
2023-10-06T04:11:39.161Z,70
2023-10-06T04:14:09.627Z,71
2023-10-06T04:16:40.928Z,71
2023-10-06T04:19:11.896Z,70
2023-10-06T04:21:42.229Z,70
2023-10-06T04:24:13.009Z,70
2023-10-06T04:26:43.951Z,70
2023-10-06T04:29:14.417Z,70
2023-10-06T04:31:45.118Z,70
2023-10-06T04:34:15.383Z,70
2023-10-06T04:36:45.766Z,70
2023-10-06T04:39:16.371Z,70
2023-10-06T04:41:52.005Z,70
2023-10-06T04:44:23.680Z,70
2023-10-06T04:46:54.312Z,70
2023-10-06T04:49:24.978Z,70
2023-10-06T04:51:56.047Z,70
2023-10-06T04:54:26.927Z,70
2023-10-06T04:56:57.660Z,70
2023-10-06T04:59:27.999Z,70
2023-10-06T05:01:59.121Z,70
2023-10-06T05:04:35.052Z,70
2023-10-06T05:07:06.552Z,70
2023-10-06T05:09:36.510Z,70
2023-10-06T05:12:06.721Z,70
2023-10-06T05:14:37.869Z,70
2023-10-06T05:17:08.313Z,70
2023-10-06T05:19:39.046Z,70
2023-10-06T05:22:10.290Z,71
2023-10-06T05:24:40.958Z,71
2023-10-06T05:27:11.723Z,71
2023-10-06T05:29:42.722Z,71
2023-10-06T05:32:13.921Z,71
2023-10-06T05:34:44.275Z,70
2023-10-06T05:37:14.993Z,71
2023-10-06T05:39:45.451Z,71
2023-10-06T05:42:15.981Z,70
2023-10-06T05:44:46.785Z,70
2023-10-06T05:47:17.423Z,70
2023-10-06T05:49:48.140Z,70
2023-10-06T05:52:19.338Z,69
2023-10-06T05:54:50.390Z,69
2023-10-06T05:57:21.447Z,69
2023-10-06T05:59:51.970Z,69
2023-10-06T06:02:22.645Z,68
2023-10-06T06:04:53.523Z,68
2023-10-06T06:07:24.342Z,68
2023-10-06T06:09:54.660Z,68
2023-10-06T06:12:25.218Z,67
2023-10-06T06:14:55.763Z,67
2023-10-06T06:17:27.040Z,67
2023-10-06T06:20:04.603Z,67
2023-10-06T06:22:28.250Z,67
2023-10-06T06:24:58.788Z,67
2023-10-06T06:27:29.671Z,66
2023-10-06T06:30:01.383Z,66
2023-10-06T06:32:32.111Z,65
2023-10-06T06:35:02.173Z,65
2023-10-06T06:37:32.827Z,66
2023-10-06T06:40:03.382Z,66
2023-10-06T06:42:33.692Z,66
2023-10-06T06:45:04.516Z,66
2023-10-06T06:47:35.319Z,65
2023-10-06T06:50:05.697Z,65
2023-10-06T06:52:36.573Z,65
2023-10-06T06:55:07.385Z,64
2023-10-06T06:57:37.933Z,64
2023-10-06T07:00:08.775Z,64
2023-10-06T07:02:39.780Z,64
2023-10-06T07:05:10.470Z,64
2023-10-06T07:07:41.050Z,64
2023-10-06T07:10:11.609Z,64
2023-10-06T07:12:42.153Z,64
2023-10-06T07:15:12.570Z,64
2023-10-06T07:17:43.284Z,63
2023-10-06T07:20:13.722Z,63
2023-10-06T07:22:44.080Z,63
2023-10-06T07:25:14.417Z,63
2023-10-06T07:27:44.836Z,63
2023-10-06T07:30:15.186Z,62
2023-10-06T07:32:45.981Z,62
2023-10-06T07:35:16.428Z,62
2023-10-06T07:37:47.382Z,62
2023-10-06T07:40:18.388Z,61
2023-10-06T07:42:48.963Z,61
2023-10-06T07:45:20.573Z,61
2023-10-06T07:47:50.878Z,61
2023-10-06T07:50:21.465Z,61
2023-10-06T07:52:51.914Z,61
2023-10-06T07:55:22.702Z,60
2023-10-06T07:57:53.897Z,60
2023-10-06T08:00:24.399Z,60
2023-10-06T08:02:55.659Z,60
2023-10-06T08:05:28.609Z,59
2023-10-06T08:07:57.194Z,59
2023-10-06T08:10:27.622Z,59
2023-10-06T08:12:58.528Z,58
2023-10-06T08:15:29.527Z,59
2023-10-06T08:18:00.920Z,59
2023-10-06T08:20:32.168Z,59
2023-10-06T08:23:02.817Z,58
2023-10-06T08:25:45.704Z,57
2023-10-06T08:28:04.488Z,58
2023-10-06T08:30:34.829Z,58
2023-10-06T08:33:05.493Z,58
2023-10-06T08:35:35.720Z,57
2023-10-06T08:38:06.149Z,58
2023-10-06T08:40:36.777Z,57
2023-10-06T08:43:07.148Z,58
2023-10-06T08:45:38.009Z,57
2023-10-06T08:48:08.759Z,57
2023-10-06T08:50:39.355Z,57
2023-10-06T08:53:10.300Z,57
2023-10-06T08:55:41.166Z,56
2023-10-06T08:58:11.402Z,56
2023-10-06T09:00:41.889Z,56
2023-10-06T09:03:12.775Z,56
2023-10-06T09:05:43.090Z,56
2023-10-06T09:08:14.114Z,56
2023-10-06T09:10:45.023Z,56
2023-10-06T09:13:15.792Z,56
2023-10-06T09:15:46.818Z,56
2023-10-06T09:18:17.815Z,55
2023-10-06T09:20:48.691Z,55
2023-10-06T09:23:19.268Z,55
2023-10-06T09:25:50.268Z,55
2023-10-06T09:28:20.369Z,55
2023-10-06T09:30:51.072Z,55
2023-10-06T09:33:21.974Z,54
2023-10-06T09:35:52.373Z,54
2023-10-06T09:38:23.421Z,54
2023-10-06T09:40:54.133Z,54
2023-10-06T09:43:24.843Z,54
2023-10-06T09:45:55.344Z,53
2023-10-06T09:48:25.936Z,53
2023-10-06T09:50:56.712Z,53
2023-10-06T09:53:27.089Z,53
2023-10-06T09:55:57.762Z,53
2023-10-06T09:58:28.293Z,53
2023-10-06T10:00:59.410Z,53
2023-10-06T10:03:30.370Z,53
2023-10-06T10:06:00.830Z,53
2023-10-06T10:08:31.673Z,52
2023-10-06T10:11:02.438Z,53
2023-10-06T10:13:33.610Z,53
2023-10-06T10:16:04.326Z,53
2023-10-06T10:18:35.502Z,52
2023-10-06T10:21:06.181Z,52
2023-10-06T10:23:36.886Z,51
2023-10-06T10:26:08.001Z,51
2023-10-06T10:28:39.145Z,52
2023-10-06T10:31:09.663Z,51
2023-10-06T10:33:40.888Z,51
2023-10-06T10:36:11.315Z,52
2023-10-06T10:38:42.012Z,51
2023-10-06T10:41:13.012Z,51
2023-10-06T10:43:43.751Z,50
2023-10-06T10:46:14.237Z,50
2023-10-06T10:48:44.903Z,51
2023-10-06T10:51:15.578Z,50
2023-10-06T10:53:45.793Z,50
2023-10-06T10:56:16.902Z,50
2023-10-06T10:58:47.802Z,50
2023-10-06T11:01:18.652Z,50
2023-10-06T11:03:49.382Z,50
2023-10-06T11:06:18.432Z,49
2023-10-06T11:08:48.869Z,50
2023-10-06T11:11:19.323Z,50
2023-10-06T11:13:54.820Z,49
2023-10-06T11:16:20.349Z,48
2023-10-06T11:18:51.455Z,49
2023-10-06T11:21:22.287Z,48
2023-10-06T11:23:53.682Z,48
2023-10-06T11:26:24.741Z,49
2023-10-06T11:28:55.551Z,48
2023-10-06T11:31:26.189Z,49
2023-10-06T11:33:56.863Z,48
2023-10-06T11:36:27.162Z,49
2023-10-06T11:38:57.546Z,49
2023-10-06T11:41:28.057Z,49
2023-10-06T11:43:59.271Z,48
2023-10-06T11:46:29.280Z,48
2023-10-06T11:49:00.059Z,48
2023-10-06T11:51:30.691Z,47
2023-10-06T11:54:01.034Z,48
2023-10-06T11:56:31.592Z,48
2023-10-06T11:59:01.913Z,48
2023-10-06T12:01:32.558Z,48
2023-10-06T12:04:03.230Z,48
2023-10-06T12:06:33.422Z,48
2023-10-06T12:09:07.214Z,48
2023-10-06T12:11:38.275Z,47
2023-10-06T12:14:09.728Z,47
2023-10-06T12:16:40.360Z,48
2023-10-06T12:19:11.459Z,47
2023-10-06T12:21:42.587Z,47
2023-10-06T12:24:13.074Z,46
2023-10-06T12:26:43.943Z,45
2023-10-06T12:29:14.122Z,48
2023-10-06T12:31:44.449Z,46
2023-10-06T12:34:15.006Z,46
2023-10-06T12:36:45.688Z,45
2023-10-06T12:39:19.285Z,46
2023-10-06T12:41:50.745Z,45
2023-10-06T12:44:21.120Z,44
2023-10-06T12:46:51.877Z,45
2023-10-06T12:49:22.222Z,45
2023-10-06T12:51:53.358Z,45
2023-10-06T12:54:24.466Z,44
2023-10-06T12:56:55.669Z,43
2023-10-06T12:59:26.053Z,43
2023-10-06T13:01:56.838Z,43
2023-10-06T13:04:27.327Z,42
2023-10-06T13:06:57.687Z,43
2023-10-06T13:09:27.881Z,43
2023-10-06T13:11:57.000Z,42
2023-10-06T13:14:27.515Z,41
2023-10-06T13:16:58.398Z,41
2023-10-06T13:19:27.257Z,41
2023-10-06T13:21:57.837Z,41
2023-10-06T13:24:28.628Z,40
2023-10-06T13:26:59.849Z,42
2023-10-06T13:29:30.961Z,40
2023-10-06T13:32:01.484Z,41
2023-10-06T13:34:31.678Z,41
2023-10-06T13:37:02.468Z,40
2023-10-06T13:39:32.881Z,41
2023-10-06T13:42:04.263Z,40
2023-10-06T13:44:34.145Z,42
2023-10-06T13:47:05.128Z,41
2023-10-06T13:49:35.778Z,40
2023-10-06T13:52:06.714Z,40
2023-10-06T13:54:37.080Z,40
2023-10-06T13:57:07.561Z,39
2023-10-06T13:59:37.918Z,39
2023-10-06T14:02:08.802Z,39
2023-10-06T14:04:39.070Z,40
2023-10-06T14:07:13.620Z,42
2023-10-06T14:09:44.349Z,40
2023-10-06T14:12:15.191Z,41
2023-10-06T14:14:45.895Z,41
2023-10-06T14:17:17.304Z,41
2023-10-06T14:19:47.768Z,43
2023-10-06T14:22:18.940Z,43
2023-10-06T14:24:49.777Z,43
2023-10-06T14:27:20.774Z,44
2023-10-06T14:29:51.629Z,45
2023-10-06T14:32:22.528Z,45
2023-10-06T14:34:51.008Z,46
2023-10-06T14:37:20.769Z,46
2023-10-06T14:39:51.855Z,47
2023-10-06T14:42:22.020Z,47
2023-10-06T14:44:52.889Z,47
2023-10-06T14:47:23.652Z,47
2023-10-06T14:49:54.389Z,47
2023-10-06T14:52:25.366Z,47
2023-10-06T14:54:56.030Z,49
2023-10-06T14:57:26.795Z,50
2023-10-06T14:59:57.337Z,49
2023-10-06T15:02:28.102Z,49
2023-10-06T15:04:59.804Z,49
2023-10-06T15:07:36.327Z,49
2023-10-06T15:10:06.596Z,50
2023-10-06T15:12:36.824Z,49
2023-10-06T15:15:07.302Z,51
2023-10-06T15:17:38.171Z,48
2023-10-06T15:20:09.259Z,48
2023-10-06T15:22:39.469Z,48
2023-10-06T15:25:10.245Z,50
2023-10-06T15:27:40.651Z,49
2023-10-06T15:30:11.669Z,49
2023-10-06T15:32:42.179Z,49
2023-10-06T15:35:12.344Z,50
2023-10-06T15:37:43.062Z,50
2023-10-06T15:40:13.393Z,49
2023-10-06T15:42:43.721Z,51
2023-10-06T15:45:15.004Z,52
2023-10-06T15:47:43.769Z,50
2023-10-06T15:50:22.156Z,50
2023-10-06T15:52:45.201Z,50
2023-10-06T15:55:19.364Z,50
2023-10-06T15:57:50.212Z,51
2023-10-06T16:00:19.048Z,50
2023-10-06T16:02:55.376Z,50
2023-10-06T16:05:26.149Z,51
2023-10-06T16:07:56.829Z,51
2023-10-06T16:10:27.248Z,51
2023-10-06T16:12:57.625Z,51
2023-10-06T16:15:28.081Z,50
2023-10-06T16:17:58.592Z,50
2023-10-06T16:20:29.533Z,51
2023-10-06T16:23:00.434Z,50
2023-10-06T16:25:30.972Z,51
2023-10-06T16:28:03.453Z,51
2023-10-06T16:30:32.873Z,51
2023-10-06T16:33:03.093Z,50
2023-10-06T16:35:33.408Z,51
2023-10-06T16:38:03.772Z,50
2023-10-06T16:40:34.791Z,50
2023-10-06T16:43:03.555Z,50
2023-10-06T16:45:34.210Z,50
2023-10-06T16:48:04.556Z,51
2023-10-06T16:50:34.816Z,51
2023-10-06T16:53:05.725Z,51
2023-10-06T16:55:36.652Z,52
2023-10-06T16:58:07.670Z,52
2023-10-06T17:00:37.774Z,52
2023-10-06T17:03:08.765Z,53
2023-10-06T17:05:38.879Z,53
2023-10-06T17:08:09.164Z,54
2023-10-06T17:10:39.429Z,55
2023-10-06T17:13:09.770Z,55
2023-10-06T17:15:40.010Z,55
2023-10-06T17:18:10.426Z,55
2023-10-06T17:20:41.304Z,56
2023-10-06T17:23:12.145Z,56
2023-10-06T17:25:43.052Z,56
2023-10-06T17:28:13.940Z,57
2023-10-06T17:30:44.824Z,57
2023-10-06T17:33:15.067Z,58
2023-10-06T17:35:45.701Z,58
2023-10-06T17:38:16.499Z,58
2023-10-06T17:40:46.667Z,58
2023-10-06T17:43:16.777Z,58
2023-10-06T17:45:46.921Z,58
2023-10-06T17:48:17.965Z,58
2023-10-06T17:50:48.060Z,58
2023-10-06T17:53:18.853Z,59
2023-10-06T17:55:50.034Z,59
2023-10-06T17:58:19.943Z,59
2023-10-06T18:00:50.747Z,59
2023-10-06T18:03:21.500Z,59
2023-10-06T18:05:51.722Z,60
2023-10-06T18:08:21.850Z,59
2023-10-06T18:10:52.016Z,60
2023-10-06T18:13:22.496Z,60
2023-10-06T18:15:52.605Z,61
2023-10-06T18:18:22.918Z,61
2023-10-06T18:20:54.227Z,62
2023-10-06T18:23:24.341Z,62
2023-10-06T18:25:56.449Z,62
2023-10-06T18:28:27.247Z,61
2023-10-06T18:31:04.540Z,62
2023-10-06T18:33:35.259Z,62
2023-10-06T18:36:05.248Z,62
2023-10-06T18:38:35.642Z,62
2023-10-06T18:41:05.818Z,62
2023-10-06T18:43:36.381Z,63
2023-10-06T18:46:06.958Z,63
2023-10-06T18:48:37.033Z,63
2023-10-06T18:51:07.339Z,62
2023-10-06T18:53:37.526Z,63
2023-10-06T18:56:07.836Z,63
2023-10-06T18:58:39.307Z,63
2023-10-06T19:01:09.573Z,64
2023-10-06T19:03:39.791Z,64
2023-10-06T19:06:09.479Z,64
2023-10-06T19:08:39.891Z,65
2023-10-06T19:11:10.080Z,65
2023-10-06T19:13:40.338Z,65
2023-10-06T19:16:10.826Z,65
2023-10-06T19:18:41.215Z,65
2023-10-06T19:21:11.165Z,65
2023-10-06T19:23:41.532Z,65
2023-10-06T19:26:11.748Z,65
2023-10-06T19:28:41.584Z,65
2023-10-06T19:31:11.614Z,65
2023-10-06T19:33:42.700Z,66
2023-10-06T19:36:11.144Z,66
2023-10-06T19:38:41.584Z,66
2023-10-06T19:41:11.941Z,66
2023-10-06T19:43:44.484Z,66
2023-10-06T19:46:16.016Z,66
2023-10-06T19:48:46.033Z,66
2023-10-06T19:51:16.494Z,66
2023-10-06T19:53:46.875Z,66
2023-10-06T19:56:17.430Z,66
2023-10-06T19:58:47.790Z,67
2023-10-06T20:01:18.144Z,67
2023-10-06T20:03:48.888Z,67
2023-10-06T20:06:19.259Z,66
2023-10-06T20:08:49.253Z,67
2023-10-06T20:11:19.703Z,67
2023-10-06T20:13:50.090Z,67
2023-10-06T20:16:20.151Z,67
2023-10-06T20:18:50.295Z,67
2023-10-06T20:21:19.186Z,67
2023-10-06T20:23:48.818Z,68
2023-10-06T20:26:19.154Z,68
2023-10-06T20:28:49.453Z,68
2023-10-06T20:31:19.509Z,67
2023-10-06T20:33:49.675Z,67
2023-10-06T20:36:19.782Z,68
2023-10-06T20:38:50.715Z,68
2023-10-06T20:41:20.938Z,68
2023-10-06T20:43:50.991Z,68
2023-10-06T20:46:19.713Z,68
2023-10-06T20:48:50.524Z,68
2023-10-06T20:51:20.421Z,68
2023-10-06T20:53:50.431Z,69
2023-10-06T20:56:20.686Z,69
2023-10-06T20:58:51.076Z,68
2023-10-06T21:01:21.144Z,68
2023-10-06T21:03:51.801Z,69
2023-10-06T21:06:22.102Z,68
2023-10-06T21:11:27.358Z,68
2023-10-06T21:13:57.862Z,68
2023-10-06T21:16:27.977Z,69
2023-10-06T21:18:57.863Z,68
2023-10-06T21:21:28.122Z,68
2023-10-06T21:23:58.441Z,68
2023-10-06T21:26:29.061Z,68
2023-10-06T21:28:59.126Z,69
2023-10-06T21:31:29.286Z,69
2023-10-06T21:33:58.213Z,68
2023-10-06T21:36:28.800Z,68
2023-10-06T21:38:59.250Z,68
2023-10-06T21:41:29.499Z,69
2023-10-06T21:43:59.708Z,69
2023-10-06T21:46:29.819Z,69
2023-10-06T21:48:59.789Z,69
2023-10-06T21:51:30.002Z,69
2023-10-06T21:54:00.295Z,69
2023-10-06T21:56:30.608Z,69
2023-10-06T21:59:01.294Z,69
2023-10-06T22:01:31.525Z,69
2023-10-06T22:04:02.412Z,69
2023-10-06T22:06:33.974Z,69
2023-10-06T22:09:02.881Z,69
2023-10-06T22:11:34.117Z,68
2023-10-06T22:14:05.747Z,68
2023-10-06T22:16:35.939Z,69
2023-10-06T22:19:06.412Z,68
2023-10-06T22:21:37.043Z,69
2023-10-06T22:24:10.496Z,69
2023-10-06T22:26:40.680Z,69
2023-10-06T22:29:11.020Z,69
2023-10-06T22:31:41.076Z,69
2023-10-06T22:34:11.585Z,69
2023-10-06T22:36:41.863Z,69
2023-10-06T22:39:12.025Z,69
2023-10-06T22:41:42.390Z,69
2023-10-06T22:44:12.932Z,69
2023-10-06T22:46:43.424Z,69
2023-10-06T22:49:13.828Z,69
2023-10-06T22:51:44.633Z,69
2023-10-06T22:54:15.167Z,69
2023-10-06T22:56:45.467Z,69
2023-10-06T22:59:15.796Z,69
2023-10-06T23:01:46.456Z,69
2023-10-06T23:04:16.832Z,69
2023-10-06T23:06:47.082Z,69
2023-10-06T23:09:17.345Z,69
2023-10-06T23:11:47.628Z,69
2023-10-06T23:14:18.235Z,69
2023-10-06T23:16:48.958Z,69
2023-10-06T23:19:20.227Z,69
2023-10-06T23:21:50.861Z,69
2023-10-06T23:24:21.276Z,70
2023-10-06T23:26:51.876Z,69
2023-10-06T23:29:22.155Z,69
2023-10-06T23:31:52.991Z,70
2023-10-06T23:34:23.457Z,70
2023-10-06T23:36:54.114Z,70
2023-10-06T23:39:23.289Z,71
2023-10-06T23:41:53.458Z,70
2023-10-06T23:44:24.446Z,71
2023-10-06T23:46:54.895Z,70
2023-10-06T23:49:25.015Z,70
2023-10-06T23:51:54.057Z,70
2023-10-06T23:54:24.818Z,70
2023-10-06T23:56:58.885Z,70
2023-10-06T23:59:29.297Z,70
